createdAt,value
2019-02-20T00:01:44.320Z,6.10
2019-02-20T00:06:47.892Z,6.00
2019-02-20T00:11:51.477Z,6.10
2019-02-20T00:16:55.092Z,5.90
2019-02-20T00:21:58.757Z,5.90
2019-02-20T00:27:02.599Z,5.80
2019-02-20T00:32:06.200Z,5.90
2019-02-20T00:37:10.150Z,5.60
2019-02-20T00:42:14.114Z,5.70
2019-02-20T00:47:25.433Z,5.90
2019-02-20T00:52:30.658Z,5.90
2019-02-20T00:57:34.236Z,5.80
2019-02-20T01:02:37.823Z,5.80
2019-02-20T01:07:41.472Z,5.80
2019-02-20T01:12:45.052Z,5.60
2019-02-20T01:17:48.646Z,5.60
2019-02-20T01:22:59.608Z,5.60
2019-02-20T01:27:57.453Z,5.50
2019-02-20T01:33:01.042Z,5.60
2019-02-20T01:38:04.696Z,5.50
2019-02-20T01:43:08.280Z,5.40
2019-02-20T01:48:11.880Z,5.20
2019-02-20T01:53:15.464Z,5.10
2019-02-20T01:58:19.052Z,5.20
2019-02-20T02:03:22.704Z,5.20
2019-02-20T02:08:26.293Z,5.20
2019-02-20T02:13:29.889Z,5.10
2019-02-20T02:18:33.476Z,5.00
2019-02-20T02:23:37.047Z,4.90
2019-02-20T02:28:40.999Z,5.00
2019-02-20T02:33:44.576Z,5.00
2019-02-20T02:38:48.186Z,4.90
2019-02-20T02:43:52.197Z,4.90
2019-02-20T02:48:55.788Z,4.80
2019-02-20T02:53:59.390Z,4.90
2019-02-20T02:59:02.960Z,5.10
2019-02-20T03:04:06.612Z,5.00
2019-02-20T03:09:10.268Z,4.80
2019-02-20T03:14:13.948Z,4.80
2019-02-20T03:19:17.529Z,4.80
2019-02-20T03:24:21.139Z,4.90
2019-02-20T03:29:24.715Z,4.60
2019-02-20T03:34:28.630Z,4.60
2019-02-20T03:39:32.295Z,4.80
2019-02-20T03:44:35.956Z,4.70
2019-02-20T03:49:39.541Z,4.60
2019-02-20T03:54:43.464Z,4.30
2019-02-20T03:59:47.452Z,4.40
2019-02-20T04:04:51.049Z,4.50
2019-02-20T04:09:54.976Z,4.60
2019-02-20T04:14:58.630Z,4.60
2019-02-20T04:20:02.219Z,4.70
2019-02-20T04:25:06.369Z,4.80
2019-02-20T04:30:10.288Z,4.50
2019-02-20T04:35:13.883Z,4.70
2019-02-20T04:40:17.464Z,4.90
2019-02-20T04:45:21.044Z,5.00
2019-02-20T04:50:24.644Z,5.00
2019-02-20T04:55:28.507Z,5.00
2019-02-20T05:00:32.457Z,5.00
2019-02-20T05:05:36.043Z,4.90
2019-02-20T05:10:39.656Z,4.70
2019-02-20T05:15:43.206Z,4.40
2019-02-20T05:20:46.791Z,4.40
2019-02-20T05:25:50.448Z,4.40
2019-02-20T05:30:54.481Z,4.40
2019-02-20T05:35:58.065Z,4.50
2019-02-20T05:41:01.660Z,4.60
2019-02-20T05:46:05.237Z,4.70
2019-02-20T05:51:08.821Z,4.90
2019-02-20T05:56:12.472Z,4.90
2019-02-20T06:01:16.069Z,4.70
2019-02-20T06:06:19.656Z,4.20
2019-02-20T06:11:23.312Z,4.30
2019-02-20T06:16:26.913Z,4.40
2019-02-20T06:21:30.502Z,4.00
2019-02-20T06:26:34.095Z,4.10
2019-02-20T06:31:37.673Z,4.20
2019-02-20T06:36:41.284Z,4.20
2019-02-20T06:41:44.921Z,4.10
2019-02-20T06:46:48.508Z,4.40
2019-02-20T06:51:52.094Z,4.10
2019-02-20T06:56:55.676Z,3.90
2019-02-20T07:01:59.335Z,3.90
2019-02-20T07:07:08.502Z,4.20
2019-02-20T07:12:29.977Z,4.30
2019-02-20T07:17:36.941Z,4.20
2019-02-20T07:23:04.354Z,4.30
2019-02-20T07:28:26.257Z,4.50
2019-02-20T07:33:29.841Z,4.60
2019-02-20T07:38:33.430Z,4.70
2019-02-20T07:43:37.008Z,4.80
2019-02-20T07:48:40.605Z,4.90
2019-02-20T07:53:44.584Z,4.90
2019-02-20T07:58:48.623Z,4.90
2019-02-20T08:03:52.208Z,5.20
2019-02-20T08:08:56.269Z,5.30
2019-02-20T08:13:59.848Z,5.50
2019-02-20T08:19:03.505Z,5.60
2019-02-20T08:24:07.088Z,5.70
2019-02-20T08:29:10.675Z,5.90
2019-02-20T08:34:14.261Z,6.20
2019-02-20T08:39:17.849Z,6.50
2019-02-20T08:44:21.427Z,6.30
2019-02-20T08:49:25.010Z,6.50
2019-02-20T08:54:28.588Z,6.90
2019-02-20T08:59:32.497Z,7.50
2019-02-20T09:04:36.088Z,7.90
2019-02-20T09:09:39.668Z,8.10
2019-02-20T09:14:43.249Z,8.30
2019-02-20T09:19:46.830Z,8.50
2019-02-20T09:24:50.417Z,8.80
2019-02-20T09:29:53.998Z,9.10
2019-02-20T09:34:57.590Z,9.60
2019-02-20T09:40:01.177Z,10.30
2019-02-20T09:45:06.702Z,11.10
2019-02-20T09:50:11.238Z,11.50
2019-02-20T09:55:14.824Z,11.90
2019-02-20T10:00:19.520Z,12.70
2019-02-20T10:05:23.180Z,14.60
2019-02-20T10:10:26.783Z,14.30
2019-02-20T10:15:30.433Z,14.30
2019-02-20T10:20:34.376Z,14.30
2019-02-20T10:25:38.329Z,16.00
2019-02-20T10:30:41.979Z,16.10
2019-02-20T10:35:45.562Z,17.40
2019-02-20T10:40:49.148Z,17.20
2019-02-20T10:45:52.734Z,18.50
2019-02-20T10:50:56.321Z,18.90
2019-02-20T10:56:00.249Z,19.00
2019-02-20T11:01:03.977Z,18.90
2019-02-20T11:06:07.564Z,18.10
2019-02-20T11:11:11.165Z,18.70
2019-02-20T11:16:15.073Z,17.90
2019-02-20T11:21:18.728Z,17.60
2019-02-20T11:26:22.709Z,17.20
2019-02-20T11:31:26.284Z,17.50
2019-02-20T11:36:29.948Z,17.60
2019-02-20T11:41:33.897Z,17.30
2019-02-20T11:46:37.809Z,17.80
2019-02-20T11:51:41.477Z,17.40
2019-02-20T11:56:45.065Z,17.40
2019-02-20T12:01:48.651Z,18.10
2019-02-20T12:06:52.241Z,19.10
2019-02-20T12:11:55.895Z,19.80
2019-02-20T12:16:59.475Z,20.50
2019-02-20T12:22:03.061Z,21.50
2019-02-20T12:27:07.014Z,22.40
2019-02-20T12:32:10.735Z,23.00
2019-02-20T12:37:14.588Z,23.70
2019-02-20T12:42:18.182Z,24.60
2019-02-20T12:47:21.771Z,24.50
2019-02-20T12:52:26.535Z,24.90
2019-02-20T12:57:30.216Z,23.80
2019-02-20T13:02:33.798Z,23.20
2019-02-20T13:07:37.457Z,24.00
2019-02-20T13:12:41.046Z,23.10
2019-02-20T13:17:44.630Z,22.50
2019-02-20T13:22:48.595Z,22.70
2019-02-20T13:27:52.193Z,22.90
2019-02-20T13:32:55.781Z,22.30
2019-02-20T13:37:59.634Z,22.20
2019-02-20T13:43:03.736Z,21.90
2019-02-20T13:48:07.397Z,21.80
2019-02-20T13:53:11.660Z,21.70
2019-02-20T13:58:17.638Z,21.50
2019-02-20T14:03:21.114Z,20.90
2019-02-20T14:08:24.701Z,20.20
2019-02-20T14:13:28.285Z,20.30
2019-02-20T14:18:31.877Z,20.80
2019-02-20T14:23:35.465Z,21.40
2019-02-20T14:28:39.064Z,20.50
2019-02-20T14:33:42.661Z,19.80
2019-02-20T14:38:46.617Z,20.40
2019-02-20T14:43:50.210Z,20.00
2019-02-20T14:48:54.182Z,19.50
2019-02-20T14:53:57.779Z,19.50
2019-02-20T14:59:01.363Z,19.30
2019-02-20T15:04:05.082Z,19.30
2019-02-20T15:09:09.245Z,19.00
2019-02-20T15:14:12.932Z,19.50
2019-02-20T15:19:16.516Z,19.20
2019-02-20T15:24:20.253Z,18.90
2019-02-20T15:29:23.924Z,18.30
2019-02-20T15:34:27.585Z,17.90
2019-02-20T15:39:31.314Z,17.70
2019-02-20T15:44:34.910Z,17.60
2019-02-20T15:49:38.568Z,17.40
2019-02-20T15:54:42.224Z,16.90
2019-02-20T15:59:46.139Z,16.50
2019-02-20T16:04:49.780Z,15.90
2019-02-20T16:09:53.390Z,15.50
2019-02-20T16:14:57.386Z,15.20
2019-02-20T16:20:01.044Z,15.10
2019-02-20T16:25:08.824Z,14.80
2019-02-20T16:30:14.045Z,14.40
2019-02-20T16:35:18.017Z,14.10
2019-02-20T16:40:21.684Z,13.70
2019-02-20T16:45:25.946Z,13.20
2019-02-20T16:50:30.107Z,12.90
2019-02-20T16:55:33.680Z,12.40
2019-02-20T17:00:37.405Z,12.20
2019-02-20T17:05:41.161Z,12.10
2019-02-20T17:10:44.816Z,11.90
2019-02-20T17:15:49.353Z,11.40
2019-02-20T17:20:52.936Z,10.70
2019-02-20T17:25:56.602Z,10.60
2019-02-20T17:31:00.333Z,10.10
2019-02-20T17:36:03.990Z,9.90
2019-02-20T17:41:08.236Z,9.70
2019-02-20T17:46:12.210Z,9.50
2019-02-20T17:51:15.793Z,9.60
2019-02-20T17:56:19.754Z,9.40
2019-02-20T18:01:23.903Z,9.30
2019-02-20T18:06:27.548Z,9.20
2019-02-20T18:11:31.135Z,9.20
2019-02-20T18:16:34.717Z,9.40
2019-02-20T18:21:38.296Z,9.30
2019-02-20T18:26:44.777Z,9.40
2019-02-20T18:31:48.357Z,9.20
2019-02-20T18:36:52.286Z,9.10
2019-02-20T18:41:55.879Z,9.10
2019-02-20T18:46:59.534Z,9.00
2019-02-20T18:52:03.109Z,8.70
2019-02-20T18:57:06.761Z,8.60
2019-02-20T19:02:10.714Z,8.50
2019-02-20T19:07:14.483Z,8.60
2019-02-20T19:12:21.257Z,8.50
2019-02-20T19:17:40.348Z,8.40
2019-02-20T19:23:06.784Z,8.40
2019-02-20T19:28:16.110Z,8.30
2019-02-20T19:33:40.801Z,8.30
2019-02-20T19:38:59.104Z,8.30
2019-02-20T19:44:20.800Z,8.20
2019-02-20T19:49:50.219Z,8.10
2019-02-20T19:55:02.522Z,7.90
2019-02-20T20:00:31.538Z,8.00
2019-02-20T20:05:53.398Z,7.90
2019-02-20T20:11:16.820Z,7.90
2019-02-20T20:16:32.489Z,7.90
2019-02-20T20:21:44.860Z,7.60
2019-02-20T20:26:56.036Z,7.40
2019-02-20T20:37:32.957Z,7.40
2019-02-20T20:42:57.053Z,7.40
2019-02-20T20:48:35.000Z,7.30
2019-02-20T20:53:58.403Z,7.20
2019-02-20T20:59:17.487Z,7.30
2019-02-20T21:04:37.433Z,7.20
2019-02-20T21:09:53.187Z,7.00
2019-02-20T21:15:33.338Z,6.90
2019-02-20T21:20:52.275Z,6.90
2019-02-20T21:26:23.267Z,7.10
2019-02-20T21:32:00.847Z,7.00
2019-02-20T21:37:13.232Z,6.90
2019-02-20T21:42:39.637Z,7.10
2019-02-20T21:48:04.521Z,6.90
2019-02-20T21:53:35.156Z,6.60
2019-02-20T21:58:44.896Z,6.40
2019-02-20T22:04:01.262Z,6.40
2019-02-20T22:09:13.655Z,6.50
2019-02-20T22:14:21.324Z,6.60
2019-02-20T22:19:55.076Z,6.60
2019-02-20T22:25:18.451Z,6.50
2019-02-20T22:30:39.479Z,6.30
2019-02-20T22:36:11.937Z,6.20
2019-02-20T22:41:29.538Z,6.10
2019-02-20T22:46:45.168Z,6.20
2019-02-20T22:51:52.994Z,6.30
2019-02-20T22:57:17.903Z,6.40
2019-02-20T23:02:34.059Z,6.20
2019-02-20T23:07:55.677Z,5.90
2019-02-20T23:13:08.156Z,5.90
2019-02-20T23:18:11.780Z,5.90
2019-02-20T23:23:16.064Z,5.80
2019-02-20T23:28:20.074Z,5.90
2019-02-20T23:33:25.423Z,5.80
2019-02-20T23:38:29.093Z,5.60
2019-02-20T23:43:32.834Z,5.70
2019-02-20T23:48:37.287Z,5.70
2019-02-20T23:53:40.879Z,5.70
2019-02-20T23:58:47.057Z,5.80
